Bethalto, IL (62010)

9:34 PM CST on December 27, 2014 (GMT -0600)
KILBETHA3 | Change Station
CLOSE
Current Station
Personal Weather Station
Location: Bethalto, IL
Elevation: 525 ft
Nearby Weather Stations

Elev 525 ft 38.90 °N, 90.03 °W | Updated 3 seconds ago

Overcast
Overcast
34.9 °F
Feels Like 31 °F
N
4.5
Wind Variable Wind from WSW
Gusts 11.4 mph

Today
High -- | Low -- °F
--% Chance of Precip.
Yesterday
High -- | Low -- °F
Precip. -- in
7:17 AM 4:45 PM
Waxing Crescent, 43% visible
Pressure 30.19 in
Visibility 10.0 miles
Clouds Overcast 2000 ft
Windchill 31 °F
Dew Point -16 °F
Humidity 10%
Rainfall 0.20 in
Snow Depth Not available.
UV 0 out of 12
Pollen 2.30 out of 12
Air Quality Not available.
Flu Activity Not available.
METAR KALN 280315Z AUTO 32006KT 10SM OVC020 02/01 A3019 RMK AO2 T00170007

More Conditions Fewer Conditions

Pressure 30.19 in
Visibility 10.0 miles
Clouds Overcast 2000 ft
Windchill 31 °F
Dew Point -16 °F
Humidity 10%
Rainfall 0.20 in
Snow Depth Not available.
UV 0 out of 12
Pollen 2.30 out of 12
Air Quality Not available.
Flu Activity Not available.
METAR KALN 280315Z AUTO 32006KT 10SM OVC020 02/01 A3019 RMK AO2 T00170007

More Conditions Fewer Conditions

10-Day Weather Forecast

Almanac

Astronomy

Dec. 27, 2014 Rise Set
Actual Time
Civil Twilight
Nautical Twilight
Astronomical Twilight
Moon
Length of Visible Light
Length of Day
Tomorrow will be .
, % of the Moon is Illuminated

Today's Extremes

State Highs State Lows

Community

WunderPhotos

Upload Photos

1,781,180 photos uploaded!

WunderBlogs® & News

Nearby

Air Quality

  Air Quality AQ Index Pollutant
Not available.

Snow Depth

Station Depth Elevation

Earthquake Activity

City Distance Mag. Time & Date
Minimum magnitude displayed is 2.5.

Coastal Water Temperatures

Place Temperature

Nearby Weather Stations